Time;durP1;ratioP1;P1;durP2;ratioP2;P2;SDS_P1;SDS_P2;PMS_P1;PMS_P2;Temp;Humidity;BMP_temperature;BMP_pressure;BME280_temperature;BME280_humidity;BME280_pressure;Samples;Min_cycle;Max_cycle;Signal;HPM_P1;HPM_P2
2023/12/26 00:01:07;;;;;;;11.60;3.57;;;5.10;99.90;;;;;;6182866;23;20160;-84
2023/12/26 00:03:49;;;;;;;9.67;3.83;;;5.20;99.90;;;;;;6190026;23;20273;-86
2023/12/26 00:06:24;;;;;;;13.23;3.93;;;5.10;99.90;;;;;;6186286;23;20175;-81
2023/12/26 00:12:18;;;;;;;10.17;3.73;;;4.90;99.90;;;;;;6161741;23;20187;-83
2023/12/26 00:15:17;;;;;;;13.77;3.67;;;4.80;99.90;;;;;;6189045;23;20227;-85
2023/12/26 00:17:49;;;;;;;12.53;3.77;;;4.70;99.90;;;;;;6196645;23;20219;-85
2023/12/26 00:20:30;;;;;;;10.17;3.73;;;4.70;99.90;;;;;;6193564;23;20732;-84
2023/12/26 00:23:04;;;;;;;11.07;3.63;;;4.60;99.90;;;;;;6196123;23;20446;-83
2023/12/26 00:25:50;;;;;;;7.30;3.37;;;4.60;99.90;;;;;;6192298;23;20168;-86
2023/12/26 00:28:19;;;;;;;5.90;3.90;;;4.70;99.90;;;;;;6193575;23;20226;-83
2023/12/26 00:30:54;;;;;;;12.30;3.57;;;4.70;99.90;;;;;;6192752;23;20166;-84
2023/12/26 00:33:34;;;;;;;10.10;3.60;;;4.80;99.90;;;;;;6194989;23;20183;-82
2023/12/26 00:36:13;;;;;;;9.23;3.80;;;4.80;99.90;;;;;;6196984;23;20182;-85
2023/12/26 00:39:15;;;;;;;9.13;3.13;;;4.90;99.90;;;;;;6194285;23;20211;-85
2023/12/26 00:41:44;;;;;;;8.83;3.70;;;4.80;99.90;;;;;;6191650;23;20198;-85
2023/12/26 00:44:13;;;;;;;8.77;3.37;;;4.90;99.90;;;;;;6194673;23;20165;-84
2023/12/26 00:46:46;;;;;;;8.47;3.53;;;4.90;99.90;;;;;;6195090;23;20175;-85
2023/12/26 00:49:15;;;;;;;15.00;3.30;;;4.90;99.90;;;;;;6198192;23;20266;-85
2023/12/26 00:51:47;;;;;;;12.20;3.77;;;4.90;99.90;;;;;;6158211;23;20243;-81
2023/12/26 00:54:43;;;;;;;9.70;3.10;;;4.80;99.90;;;;;;6197765;23;20157;-84
2023/12/26 00:57:17;;;;;;;13.37;3.60;;;4.70;99.90;;;;;;6186997;23;20176;-84
2023/12/26 00:59:46;;;;;;;10.17;3.63;;;4.80;99.90;;;;;;6196525;23;20192;-85
2023/12/26 01:02:16;;;;;;;10.80;4.30;;;4.80;99.90;;;;;;6194019;23;20159;-84
2023/12/26 01:04:45;;;;;;;11.33;3.57;;;4.80;99.90;;;;;;6187181;23;20183;-84
2023/12/26 01:07:19;;;;;;;15.43;4.07;;;4.80;99.90;;;;;;6193554;23;20171;-82
2023/12/26 01:09:49;;;;;;;10.00;3.67;;;4.80;99.90;;;;;;6192232;23;20174;-83
2023/12/26 01:12:23;;;;;;;12.23;4.03;;;4.90;99.90;;;;;;6191264;23;20842;-82
2023/12/26 01:14:55;;;;;;;11.27;3.70;;;4.90;99.90;;;;;;6169477;23;20269;-84
2023/12/26 01:17:26;;;;;;;11.47;3.83;;;4.90;99.90;;;;;;6183031;23;20257;-86
2023/12/26 01:19:58;;;;;;;12.00;4.47;;;5.00;99.90;;;;;;6182268;23;20277;-83
2023/12/26 01:22:28;;;;;;;12.37;3.50;;;4.90;99.90;;;;;;6181390;23;20327;-86
2023/12/26 01:25:07;;;;;;;12.10;3.67;;;4.80;99.90;;;;;;6182175;23;20262;-83
2023/12/26 01:27:38;;;;;;;8.80;3.13;;;4.80;99.90;;;;;;6182830;23;20182;-84
2023/12/26 01:30:08;;;;;;;10.23;3.30;;;4.90;99.90;;;;;;6169933;23;20378;-84
2023/12/26 01:32:38;;;;;;;11.00;3.03;;;4.80;99.90;;;;;;6178407;23;20697;-83
2023/12/26 01:35:07;;;;;;;9.13;3.10;;;5.00;99.90;;;;;;6184052;23;20473;-83
2023/12/26 01:37:37;;;;;;;7.57;3.07;;;5.20;99.90;;;;;;6178726;23;20182;-85
2023/12/26 01:40:09;;;;;;;9.50;3.13;;;5.30;99.90;;;;;;6179433;23;20242;-85
2023/12/26 01:42:41;;;;;;;8.17;3.50;;;5.30;99.90;;;;;;6179197;23;20182;-84
2023/12/26 01:45:12;;;;;;;9.03;3.40;;;5.50;99.90;;;;;;6177437;23;20164;-86
2023/12/26 01:47:44;;;;;;;7.57;3.50;;;5.50;99.90;;;;;;6178640;23;20177;-84
2023/12/26 01:50:14;;;;;;;10.33;3.17;;;5.60;99.90;;;;;;6177739;23;20454;-82
2023/12/26 01:52:44;;;;;;;8.47;3.30;;;5.70;99.90;;;;;;6168584;23;20177;-84
2023/12/26 01:55:14;;;;;;;7.67;3.23;;;5.70;99.90;;;;;;6193493;23;20226;-86
2023/12/26 01:57:46;;;;;;;8.40;3.10;;;5.70;99.90;;;;;;6180823;23;20158;-84
2023/12/26 02:00:15;;;;;;;10.27;3.57;;;5.70;99.90;;;;;;6178897;23;20184;-83
2023/12/26 02:02:46;;;;;;;8.10;3.40;;;5.70;99.90;;;;;;6175204;23;20229;-84
2023/12/26 02:05:15;;;;;;;8.87;3.93;;;5.80;99.90;;;;;;6176493;23;20543;-85
2023/12/26 02:08:02;;;;;;;6.63;3.80;;;5.70;99.90;;;;;;6177040;23;20418;-83
2023/12/26 02:10:47;;;;;;;9.87;4.17;;;5.70;99.90;;;;;;6179921;23;20173;-82
2023/12/26 02:13:18;;;;;;;10.57;3.37;;;5.60;99.90;;;;;;6186448;23;20283;-84
2023/12/26 02:16:02;;;;;;;10.70;3.63;;;5.50;99.90;;;;;;6177413;23;20189;-85
2023/12/26 02:18:36;;;;;;;10.67;4.40;;;5.40;99.90;;;;;;6189498;23;20234;-81
2023/12/26 02:21:11;;;;;;;8.53;3.90;;;5.50;99.90;;;;;;6191689;23;20167;-84
2023/12/26 02:24:04;;;;;;;8.67;3.43;;;5.50;99.90;;;;;;6198592;23;20235;-82
2023/12/26 02:26:46;;;;;;;9.27;3.67;;;5.50;99.90;;;;;;6203723;23;20143;-87
2023/12/26 02:29:26;;;;;;;8.60;3.73;;;5.50;99.90;;;;;;6192487;23;20193;-86
2023/12/26 02:32:27;;;;;;;11.13;4.10;;;5.40;99.90;;;;;;6189295;23;20170;-87
2023/12/26 02:35:54;;;;;;;8.73;4.23;;;5.40;99.90;;;;;;6184250;23;20542;-82
2023/12/26 02:38:28;;;;;;;9.20;3.70;;;5.60;99.90;;;;;;6147429;23;20513;-83
2023/12/26 02:41:24;;;;;;;13.60;4.87;;;5.60;99.90;;;;;;6180376;23;20163;-84
2023/12/26 02:43:56;;;;;;;8.43;3.57;;;5.60;99.90;;;;;;6172110;23;20271;-82
2023/12/26 02:46:36;;;;;;;10.80;4.20;;;5.60;99.90;;;;;;6186490;23;20492;-85
2023/12/26 02:49:36;;;;;;;11.90;4.43;;;5.60;99.90;;;;;;6184478;23;20456;-84
2023/12/26 02:52:11;;;;;;;8.23;4.00;;;5.70;99.90;;;;;;6149842;23;20174;-82
2023/12/26 02:54:40;;;;;;;9.60;4.27;;;5.80;99.90;;;;;;6191891;23;20181;-86
2023/12/26 02:58:04;;;;;;;6.27;3.73;;;5.90;99.90;;;;;;6201381;23;20178;-82
2023/12/26 03:00:34;;;;;;;8.00;3.70;;;5.90;99.90;;;;;;6176315;23;20202;-85
2023/12/26 03:03:22;;;;;;;8.10;4.80;;;6.00;99.90;;;;;;6182225;23;20484;-83
2023/12/26 03:05:51;;;;;;;9.07;4.17;;;6.00;99.90;;;;;;6187240;23;20754;-89
2023/12/26 03:08:46;;;;;;;8.37;3.60;;;6.00;99.90;;;;;;6186371;23;20169;-85
2023/12/26 03:11:41;;;;;;;8.20;3.57;;;6.20;99.90;;;;;;6153808;23;20351;-84
2023/12/26 03:14:31;;;;;;;11.03;4.00;;;6.00;99.90;;;;;;6165176;23;20297;-86
2023/12/26 03:17:01;;;;;;;9.47;4.60;;;6.00;99.90;;;;;;6200531;23;20651;-85
2023/12/26 03:19:44;;;;;;;6.57;4.00;;;6.00;99.90;;;;;;6198475;23;20204;-82
2023/12/26 03:22:15;;;;;;;10.03;4.40;;;6.00;99.90;;;;;;6195626;23;20184;-85
2023/12/26 03:25:11;;;;;;;10.67;4.63;;;6.00;99.90;;;;;;6197818;23;20405;-84
2023/12/26 03:28:12;;;;;;;7.97;3.90;;;6.10;99.90;;;;;;6185752;23;20194;-88
2023/12/26 03:30:44;;;;;;;5.37;4.17;;;6.00;99.90;;;;;;6153853;23;20185;-83
2023/12/26 03:33:14;;;;;;;8.50;4.30;;;5.90;99.90;;;;;;6154587;23;20259;-83
2023/12/26 03:35:52;;;;;;;12.33;4.83;;;6.10;99.90;;;;;;6167924;23;20160;-82
2023/12/26 03:38:39;;;;;;;9.97;4.27;;;6.10;99.90;;;;;;6169757;23;20528;-83
2023/12/26 03:41:08;;;;;;;10.53;5.50;;;6.20;99.90;;;;;;6168877;23;20164;-82
2023/12/26 03:43:40;;;;;;;12.77;5.40;;;6.20;99.90;;;;;;6162439;23;20171;-84
2023/12/26 03:46:11;;;;;;;9.83;6.17;;;6.20;99.90;;;;;;6162199;23;20340;-84
2023/12/26 03:49:18;;;;;;;9.07;5.67;;;6.20;99.90;;;;;;6156059;23;20172;-83
2023/12/26 03:52:13;;;;;;;8.10;4.73;;;6.30;99.90;;;;;;6064249;23;20180;-87
2023/12/26 03:54:57;;;;;;;10.70;5.23;;;6.40;99.90;;;;;;6067092;23;20170;-83
2023/12/26 04:02:14;;;;;;;8.10;5.00;;;6.30;99.90;;;;;;5992021;23;20193;-84
2023/12/26 04:05:11;;;;;;;10.53;4.60;;;6.10;99.90;;;;;;5974501;23;20775;-84
2023/12/26 04:08:14;;;;;;;8.73;4.50;;;6.10;99.90;;;;;;5987403;23;20447;-82
2023/12/26 04:10:48;;;;;;;10.40;5.07;;;5.90;99.90;;;;;;5916988;24;20172;-83
2023/12/26 04:13:40;;;;;;;13.53;4.47;;;5.90;99.90;;;;;;5905863;24;20184;-82
2023/12/26 04:16:18;;;;;;;10.63;4.13;;;5.80;99.90;;;;;;5913768;24;20250;-83
2023/12/26 04:18:55;;;;;;;11.63;3.83;;;5.70;99.90;;;;;;5916957;24;20233;-85
2023/12/26 04:21:29;;;;;;;9.77;4.07;;;5.70;99.90;;;;;;5915713;24;20173;-86
2023/12/26 04:24:19;;;;;;;8.20;4.17;;;5.70;99.90;;;;;;6019287;23;20190;-85
2023/12/26 04:27:06;;;;;;;6.70;3.57;;;5.70;99.90;;;;;;6203655;23;20233;-83
2023/12/26 04:30:02;;;;;;;6.23;4.20;;;5.40;99.90;;;;;;6194853;23;20237;-83
2023/12/26 04:32:57;;;;;;;8.97;4.33;;;5.80;99.90;;;;;;6181224;23;20225;-82
2023/12/26 04:35:36;;;;;;;9.87;4.07;;;5.70;99.90;;;;;;6049025;23;20169;-84
2023/12/26 04:38:39;;;;;;;12.50;4.60;;;5.80;99.90;;;;;;6084056;23;20181;-87
2023/12/26 04:41:39;;;;;;;8.37;3.77;;;5.80;99.90;;;;;;6082531;23;20209;-83
2023/12/26 04:44:09;;;;;;;10.30;3.97;;;5.80;99.90;;;;;;6082423;23;20187;-82
2023/12/26 04:47:06;;;;;;;7.87;3.60;;;5.80;99.90;;;;;;6084358;23;20510;-84
2023/12/26 04:49:59;;;;;;;11.53;3.80;;;5.90;99.90;;;;;;6069924;23;20220;-85
2023/12/26 04:52:33;;;;;;;8.50;3.47;;;5.80;99.90;;;;;;6084048;23;20203;-82
2023/12/26 04:55:10;;;;;;;8.53;3.60;;;5.80;99.90;;;;;;6094897;23;20204;-84
2023/12/26 04:57:41;;;;;;;7.40;3.80;;;5.70;99.90;;;;;;6173738;23;20170;-83
2023/12/26 05:00:13;;;;;;;7.53;3.90;;;5.70;99.90;;;;;;6162677;23;20427;-87
2023/12/26 05:02:45;;;;;;;8.67;4.03;;;5.70;99.90;;;;;;6173847;23;20220;-83
2023/12/26 05:05:14;;;;;;;5.63;3.33;;;5.70;99.90;;;;;;6170159;23;20186;-85
2023/12/26 05:07:46;;;;;;;6.00;3.40;;;5.70;99.90;;;;;;6174442;23;20166;-82
2023/12/26 05:10:18;;;;;;;7.80;3.70;;;5.70;99.90;;;;;;6171897;23;20389;-83
2023/12/26 05:13:06;;;;;;;9.73;4.00;;;5.60;99.90;;;;;;6155542;23;20213;-84
2023/12/26 05:15:38;;;;;;;9.17;4.20;;;5.60;99.90;;;;;;6150707;23;20230;-85
2023/12/26 05:18:10;;;;;;;7.13;3.67;;;5.70;99.90;;;;;;6150522;23;20180;-83
2023/12/26 05:20:48;;;;;;;9.20;4.10;;;5.70;99.90;;;;;;6151376;23;20195;-83
2023/12/26 05:23:20;;;;;;;6.13;4.20;;;5.80;99.90;;;;;;6147639;23;20187;-83
2023/12/26 05:25:49;;;;;;;6.57;4.20;;;5.80;99.90;;;;;;6154452;23;20179;-83
2023/12/26 05:28:23;;;;;;;7.90;4.40;;;5.80;99.90;;;;;;6152137;23;20266;-84
2023/12/26 05:31:03;;;;;;;5.97;4.13;;;5.90;99.90;;;;;;6155933;23;20182;-83
2023/12/26 05:33:34;;;;;;;10.57;4.70;;;5.90;99.90;;;;;;6154608;23;20199;-84
2023/12/26 05:36:04;;;;;;;6.20;4.50;;;5.90;99.90;;;;;;6155595;23;20199;-86
2023/12/26 05:38:33;;;;;;;8.50;5.00;;;6.00;99.90;;;;;;6154065;23;20160;-86
2023/12/26 05:41:04;;;;;;;6.37;4.40;;;6.10;99.90;;;;;;6155135;23;20191;-84
2023/12/26 05:43:35;;;;;;;8.27;4.63;;;6.10;99.90;;;;;;6169154;23;20196;-83
2023/12/26 05:46:04;;;;;;;7.53;5.00;;;6.20;99.90;;;;;;6171799;23;20243;-85
2023/12/26 05:48:35;;;;;;;8.90;5.00;;;6.20;99.90;;;;;;6176006;23;20172;-87
2023/12/26 05:51:06;;;;;;;7.40;4.80;;;6.20;99.90;;;;;;6176540;23;20241;-85
2023/12/26 05:53:35;;;;;;;8.13;4.97;;;6.30;99.90;;;;;;6172071;23;20439;-84
2023/12/26 05:56:05;;;;;;;7.43;4.63;;;6.30;99.90;;;;;;6163809;23;20361;-85
2023/12/26 05:58:35;;;;;;;8.27;5.07;;;6.40;99.90;;;;;;6155609;23;20167;-83
2023/12/26 06:01:09;;;;;;;8.73;5.30;;;6.50;99.90;;;;;;6167742;23;20203;-83
2023/12/26 06:03:39;;;;;;;9.33;4.90;;;6.50;99.90;;;;;;6174614;23;20496;-85
2023/12/26 06:06:11;;;;;;;7.03;5.40;;;6.50;99.90;;;;;;6139254;23;20164;-83
2023/12/26 06:08:41;;;;;;;9.57;5.33;;;6.60;99.90;;;;;;6177837;23;20164;-83
2023/12/26 06:11:10;;;;;;;7.30;5.43;;;6.60;99.90;;;;;;6163266;23;20163;-84
2023/12/26 06:13:40;;;;;;;8.30;5.40;;;6.60;99.90;;;;;;6170095;23;20167;-85
2023/12/26 06:16:09;;;;;;;6.20;5.57;;;6.60;99.90;;;;;;6171182;23;20155;-83
2023/12/26 06:18:38;;;;;;;8.50;5.43;;;6.60;99.90;;;;;;6167057;23;20174;-83
2023/12/26 06:21:08;;;;;;;10.53;5.30;;;6.70;99.90;;;;;;6165147;23;20192;-85
2023/12/26 06:23:37;;;;;;;7.40;5.57;;;6.70;99.90;;;;;;6148834;23;20171;-86
2023/12/26 06:26:06;;;;;;;6.70;5.40;;;6.80;99.90;;;;;;6167530;23;20352;-84
2023/12/26 06:28:37;;;;;;;7.73;6.07;;;6.80;99.90;;;;;;6175789;23;20171;-86
2023/12/26 06:31:13;;;;;;;7.60;5.10;;;6.80;99.90;;;;;;6174826;23;20665;-84
2023/12/26 06:33:43;;;;;;;8.57;5.90;;;6.80;99.90;;;;;;6166041;23;20241;-86
2023/12/26 06:36:17;;;;;;;5.90;5.17;;;6.80;99.90;;;;;;6170028;23;20770;-87
2023/12/26 06:38:46;;;;;;;7.77;5.43;;;6.90;99.90;;;;;;6161351;23;20713;-84
2023/12/26 06:41:16;;;;;;;8.47;5.17;;;6.90;99.90;;;;;;6124055;23;20281;-85
2023/12/26 06:43:45;;;;;;;5.30;4.73;;;6.90;99.90;;;;;;6159114;23;20318;-86
2023/12/26 06:46:16;;;;;;;6.73;4.83;;;7.00;99.90;;;;;;6160562;23;20239;-85
2023/12/26 06:48:45;;;;;;;8.37;4.67;;;7.00;99.90;;;;;;6160109;23;20180;-83
2023/12/26 06:51:15;;;;;;;5.37;4.73;;;7.00;99.90;;;;;;6161604;23;20225;-83
2023/12/26 06:53:44;;;;;;;6.83;5.03;;;7.00;99.90;;;;;;6158457;23;20190;-83
2023/12/26 06:56:14;;;;;;;5.63;4.20;;;7.00;99.90;;;;;;6159165;23;20183;-87
2023/12/26 06:58:42;;;;;;;7.80;4.97;;;7.10;99.90;;;;;;6155598;23;20175;-85
2023/12/26 07:01:13;;;;;;;5.80;4.70;;;7.10;99.90;;;;;;6158076;23;20192;-87
2023/12/26 07:03:43;;;;;;;5.40;4.90;;;7.10;99.90;;;;;;6154612;23;20189;-85
2023/12/26 07:06:13;;;;;;;6.13;4.53;;;7.10;99.90;;;;;;6159037;23;20180;-85
2023/12/26 07:08:42;;;;;;;6.83;5.50;;;7.20;99.90;;;;;;6155258;23;20563;-86
2023/12/26 07:11:11;;;;;;;7.50;5.53;;;7.20;99.90;;;;;;6153905;23;20171;-86
2023/12/26 07:13:40;;;;;;;5.60;4.50;;;7.30;99.90;;;;;;6152755;23;20621;-85
2023/12/26 07:16:10;;;;;;;5.80;4.83;;;7.30;99.90;;;;;;6156912;23;20179;-86
2023/12/26 07:18:38;;;;;;;6.90;5.23;;;7.30;99.90;;;;;;6160107;23;20240;-86
2023/12/26 07:21:09;;;;;;;9.80;5.57;;;7.40;99.90;;;;;;6163920;23;20275;-84
2023/12/26 07:23:38;;;;;;;7.30;4.90;;;7.40;99.90;;;;;;6159543;23;20179;-87
2023/12/26 07:26:07;;;;;;;7.00;4.90;;;7.40;99.90;;;;;;6124097;23;20200;-84
2023/12/26 07:28:36;;;;;;;6.80;5.27;;;7.40;99.90;;;;;;6160283;23;20182;-87
2023/12/26 07:31:06;;;;;;;7.83;5.33;;;7.40;99.90;;;;;;6158339;23;20160;-86
2023/12/26 07:33:34;;;;;;;5.90;5.30;;;7.50;99.90;;;;;;6161233;23;20673;-86
2023/12/26 07:36:13;;;;;;;6.50;5.40;;;7.40;99.90;;;;;;6123573;23;20278;-83
2023/12/26 07:38:41;;;;;;;7.67;5.37;;;7.40;99.90;;;;;;6159210;23;20171;-84
2023/12/26 07:41:11;;;;;;;8.90;5.90;;;7.40;99.90;;;;;;6159179;23;20267;-86
2023/12/26 07:43:40;;;;;;;7.90;5.70;;;7.50;99.90;;;;;;6157427;23;20231;-83
2023/12/26 07:46:11;;;;;;;9.77;6.17;;;7.50;99.90;;;;;;6157093;23;20241;-83
2023/12/26 07:48:40;;;;;;;6.47;5.53;;;7.50;99.90;;;;;;6154077;23;20180;-86
2023/12/26 07:51:12;;;;;;;6.73;6.03;;;7.50;99.90;;;;;;6152978;23;20159;-86
2023/12/26 07:53:41;;;;;;;6.50;5.80;;;7.60;99.90;;;;;;6150229;23;20186;-85
2023/12/26 07:56:10;;;;;;;8.93;6.17;;;7.60;99.90;;;;;;6152063;23;20774;-86
2023/12/26 07:58:39;;;;;;;6.63;5.60;;;7.60;99.90;;;;;;6116797;23;20180;-86
2023/12/26 08:01:08;;;;;;;8.30;5.70;;;7.70;99.90;;;;;;6160711;23;20364;-85
2023/12/26 08:03:37;;;;;;;7.37;5.70;;;7.80;99.90;;;;;;6159332;23;20183;-84
2023/12/26 08:06:06;;;;;;;8.03;5.93;;;7.80;99.90;;;;;;6156039;23;20176;-87
2023/12/26 08:08:37;;;;;;;7.63;5.90;;;7.80;99.90;;;;;;6155253;23;20164;-84
2023/12/26 08:11:07;;;;;;;7.37;5.93;;;7.80;99.90;;;;;;6157251;23;20665;-84
2023/12/26 08:13:36;;;;;;;7.17;5.90;;;7.80;99.90;;;;;;6125457;23;20164;-86
2023/12/26 08:16:07;;;;;;;7.13;5.60;;;7.80;99.90;;;;;;6179117;23;20152;-85
2023/12/26 08:18:40;;;;;;;5.50;5.00;;;7.90;99.90;;;;;;6142776;23;20241;-86
2023/12/26 08:21:10;;;;;;;5.90;4.77;;;8.00;99.90;;;;;;6179115;23;20150;-87
2023/12/26 08:23:40;;;;;;;6.23;5.00;;;8.00;99.90;;;;;;6143588;23;20646;-86
2023/12/26 08:26:10;;;;;;;6.20;5.00;;;8.10;99.90;;;;;;6156325;23;20198;-84
2023/12/26 08:28:39;;;;;;;4.53;4.13;;;8.10;99.90;;;;;;6115199;23;20299;-84
2023/12/26 08:31:09;;;;;;;5.53;4.17;;;8.20;99.90;;;;;;6156311;23;20651;-85
2023/12/26 08:33:39;;;;;;;5.50;4.10;;;8.40;99.90;;;;;;6153780;23;20523;-85
2023/12/26 08:36:09;;;;;;;4.10;3.47;;;8.40;99.90;;;;;;6155388;23;20172;-86
2023/12/26 08:38:41;;;;;;;4.37;3.97;;;8.40;99.90;;;;;;6149233;23;20183;-88
2023/12/26 08:41:13;;;;;;;3.40;3.10;;;8.60;99.90;;;;;;6156302;23;20183;-86
2023/12/26 08:43:42;;;;;;;3.20;2.90;;;8.60;99.90;;;;;;6155927;23;20247;-84
2023/12/26 08:46:11;;;;;;;3.10;2.80;;;8.80;99.90;;;;;;6152841;23;20220;-86
2023/12/26 08:48:41;;;;;;;3.30;3.00;;;8.90;99.90;;;;;;6150079;23;20475;-87
2023/12/26 08:51:19;;;;;;;2.47;2.27;;;9.00;99.90;;;;;;6115582;23;20191;-85
2023/12/26 08:53:50;;;;;;;2.70;2.50;;;9.10;99.90;;;;;;6149925;23;20535;-87
2023/12/26 08:56:19;;;;;;;2.70;2.50;;;9.20;99.90;;;;;;6151155;23;20245;-86
2023/12/26 08:58:48;;;;;;;3.00;2.80;;;9.20;99.90;;;;;;6152811;23;20163;-84
2023/12/26 09:01:17;;;;;;;2.83;2.13;;;9.30;99.90;;;;;;6155474;23;20179;-85
2023/12/26 09:03:46;;;;;;;2.70;2.50;;;9.30;99.90;;;;;;6161623;23;20186;-85
2023/12/26 09:06:17;;;;;;;2.70;2.50;;;9.40;99.90;;;;;;6153507;23;20182;-87
2023/12/26 09:08:47;;;;;;;2.37;2.17;;;9.40;99.90;;;;;;6146519;23;20186;-87
2023/12/26 09:11:17;;;;;;;2.80;2.60;;;9.50;99.90;;;;;;6155361;23;20168;-86
2023/12/26 09:13:46;;;;;;;2.53;2.30;;;9.50;99.90;;;;;;6165474;23;20182;-86
2023/12/26 09:16:19;;;;;;;3.03;2.37;;;9.60;99.90;;;;;;6159220;23;20186;-84
2023/12/26 09:18:48;;;;;;;2.60;2.40;;;9.60;99.90;;;;;;6151972;23;20218;-87
2023/12/26 09:21:18;;;;;;;2.47;2.27;;;9.60;99.90;;;;;;6150916;23;20365;-85
2023/12/26 09:23:47;;;;;;;2.73;2.53;;;9.70;99.90;;;;;;6156142;23;20203;-83
2023/12/26 09:26:22;;;;;;;2.67;2.47;;;9.70;99.90;;;;;;6175901;23;20199;-87
2023/12/26 09:28:50;;;;;;;2.57;2.37;;;9.70;99.90;;;;;;6139026;23;20234;-84
2023/12/26 09:31:19;;;;;;;2.50;2.30;;;9.80;99.90;;;;;;6159032;23;20803;-86
2023/12/26 09:33:48;;;;;;;2.57;2.37;;;9.80;99.90;;;;;;6154992;23;20180;-86
2023/12/26 09:36:17;;;;;;;2.63;2.43;;;9.90;99.90;;;;;;6157140;23;20175;-83
2023/12/26 09:38:46;;;;;;;2.50;2.30;;;9.90;99.90;;;;;;6117193;23;20194;-83
2023/12/26 09:41:22;;;;;;;2.97;2.77;;;9.90;99.90;;;;;;6153410;23;20195;-85
2023/12/26 09:43:53;;;;;;;2.83;2.63;;;10.00;99.90;;;;;;6151992;23;20529;-89
2023/12/26 09:46:23;;;;;;;2.70;2.50;;;10.00;99.90;;;;;;6152881;23;20186;-85
2023/12/26 09:48:52;;;;;;;3.13;2.60;;;10.00;99.90;;;;;;6152257;23;20167;-86
2023/12/26 09:51:23;;;;;;;2.73;2.53;;;10.00;99.90;;;;;;6113439;23;20274;-82
2023/12/26 09:53:57;;;;;;;2.50;2.30;;;10.10;99.90;;;;;;6154939;23;20170;-83
2023/12/26 09:56:28;;;;;;;2.83;2.50;;;10.10;99.90;;;;;;6173691;23;20398;-83
2023/12/26 09:59:01;;;;;;;2.80;2.60;;;10.10;99.90;;;;;;6174464;23;20179;-86
2023/12/26 10:01:30;;;;;;;2.97;2.70;;;10.20;99.90;;;;;;6177918;23;20239;-83
2023/12/26 10:04:01;;;;;;;2.47;2.27;;;10.20;99.90;;;;;;6174455;23;20179;-87
2023/12/26 10:06:30;;;;;;;2.50;2.30;;;10.20;99.90;;;;;;6157277;23;20163;-84
2023/12/26 10:09:00;;;;;;;2.73;2.53;;;10.20;99.90;;;;;;6151376;23;20767;-84
2023/12/26 10:11:30;;;;;;;2.77;2.57;;;10.20;99.90;;;;;;6152964;23;20219;-86
2023/12/26 10:14:03;;;;;;;3.27;2.60;;;10.20;99.90;;;;;;6153564;23;20164;-83
2023/12/26 10:16:35;;;;;;;3.90;2.50;;;10.30;99.90;;;;;;6158052;23;20179;-84
2023/12/26 10:19:13;;;;;;;2.77;2.57;;;10.20;99.90;;;;;;6158943;23;20188;-84
2023/12/26 10:21:43;;;;;;;3.33;3.10;;;10.30;99.90;;;;;;6163684;23;20185;-85
2023/12/26 10:24:12;;;;;;;3.50;2.77;;;10.30;99.90;;;;;;6177375;23;20175;-81
2023/12/26 10:26:41;;;;;;;2.77;2.57;;;10.30;99.90;;;;;;6162267;23;20176;-83
2023/12/26 10:29:14;;;;;;;2.70;2.50;;;10.30;99.90;;;;;;6140527;23;20279;-83
2023/12/26 10:31:45;;;;;;;2.40;2.20;;;10.30;99.90;;;;;;6154878;23;20271;-84
2023/12/26 10:34:16;;;;;;;2.57;2.37;;;10.20;99.90;;;;;;6155663;23;20176;-83
2023/12/26 10:36:47;;;;;;;2.93;2.60;;;10.30;99.90;;;;;;6159804;23;20171;-87
2023/12/26 10:39:16;;;;;;;2.40;2.20;;;10.30;99.90;;;;;;6154529;23;20168;-81
2023/12/26 10:41:48;;;;;;;2.47;2.27;;;10.20;99.90;;;;;;6150819;23;20207;-83
2023/12/26 10:44:21;;;;;;;2.90;2.10;;;10.10;99.90;;;;;;6146133;23;20231;-85
2023/12/26 10:46:51;;;;;;;2.30;2.00;;;10.10;99.90;;;;;;6149963;23;20710;-83
2023/12/26 10:49:23;;;;;;;2.70;2.20;;;10.10;99.90;;;;;;6150936;23;20558;-87
2023/12/26 10:51:56;;;;;;;2.10;2.00;;;10.00;99.90;;;;;;6153157;23;20175;-84
2023/12/26 10:54:25;;;;;;;3.03;2.37;;;10.00;99.90;;;;;;6147219;23;20330;-87
2023/12/26 10:56:56;;;;;;;3.07;2.47;;;10.00;99.90;;;;;;6148603;23;20693;-83
2023/12/26 13:51:26;;;;;;;2.40;1.60;;;9.30;99.90;;;;;;6137639;23;20179;-84
2023/12/26 13:54:32;;;;;;;2.60;1.77;;;9.30;99.90;;;;;;6158927;23;20673;-87
2023/12/26 13:57:03;;;;;;;3.00;1.73;;;9.30;99.90;;;;;;6157157;23;20246;-87
2023/12/26 13:59:32;;;;;;;1.60;1.40;;;9.30;99.90;;;;;;6157813;23;20182;-85
2023/12/26 14:02:38;;;;;;;2.13;1.60;;;9.30;99.90;;;;;;6156462;23;20197;-84
2023/12/26 14:05:45;;;;;;;3.03;2.03;;;9.30;99.90;;;;;;6127009;23;20290;-85
2023/12/26 14:08:16;;;;;;;4.57;2.20;;;9.30;99.90;;;;;;6174967;23;20171;-85
2023/12/26 14:10:47;;;;;;;2.60;1.93;;;9.20;99.90;;;;;;6167836;23;20186;-85
2023/12/26 14:13:53;;;;;;;3.13;2.07;;;9.20;99.90;;;;;;6173689;23;20214;-85
2023/12/26 14:16:59;;;;;;;2.40;2.20;;;9.30;99.90;;;;;;6172987;23;20194;-84
2023/12/26 14:19:31;;;;;;;2.23;2.00;;;9.40;99.90;;;;;;6120945;23;20270;-86
2023/12/26 14:22:03;;;;;;;1.97;1.80;;;9.20;99.90;;;;;;6151485;23;20411;-84
2023/12/26 14:25:10;;;;;;;3.47;2.23;;;9.30;99.90;;;;;;6163461;23;20208;-86
2023/12/26 14:28:17;;;;;;;2.50;2.27;;;9.20;99.90;;;;;;6173597;23;20256;-88
2023/12/26 14:30:46;;;;;;;2.43;2.23;;;9.20;99.90;;;;;;6155479;23;20233;-88
2023/12/26 14:33:19;;;;;;;2.20;2.00;;;9.10;99.90;;;;;;6153892;23;20159;-83
2023/12/26 14:36:26;;;;;;;2.57;2.20;;;9.10;99.90;;;;;;6170585;23;20171;-88
2023/12/26 14:39:33;;;;;;;2.53;2.07;;;9.00;99.90;;;;;;6158067;23;20227;-85
2023/12/26 14:42:06;;;;;;;2.73;2.30;;;8.80;99.90;;;;;;6169749;23;20158;-84
2023/12/26 14:44:42;;;;;;;3.40;2.10;;;8.80;99.90;;;;;;6154303;23;20187;-88
2023/12/26 14:47:48;;;;;;;2.50;1.97;;;8.70;99.90;;;;;;6119307;23;20172;-86
2023/12/26 14:50:59;;;;;;;3.73;1.97;;;8.70;99.90;;;;;;6164440;23;20195;-88
2023/12/26 14:53:32;;;;;;;3.53;1.70;;;8.60;99.90;;;;;;6165433;23;20187;-84
2023/12/26 14:56:13;;;;;;;2.83;1.87;;;8.50;99.90;;;;;;6166977;23;20830;-84
2023/12/26 14:59:21;;;;;;;3.20;2.40;;;8.50;99.90;;;;;;6179692;23;20206;-88
2023/12/26 15:02:01;;;;;;;2.63;1.67;;;8.50;99.90;;;;;;6198393;23;20169;-85
2023/12/26 15:04:51;;;;;;;4.63;1.70;;;8.40;99.90;;;;;;6182371;23;20298;-85
2023/12/26 15:07:24;;;;;;;2.20;2.00;;;8.40;99.90;;;;;;6178901;23;20163;-86
2023/12/26 15:09:56;;;;;;;1.97;1.57;;;8.40;99.90;;;;;;6185499;23;20166;-85
2023/12/26 15:12:26;;;;;;;2.27;1.60;;;8.40;99.90;;;;;;6195337;23;20163;-87
2023/12/26 15:14:56;;;;;;;3.93;1.97;;;8.10;99.90;;;;;;6188673;23;20185;-85
2023/12/26 15:17:27;;;;;;;3.23;1.77;;;8.20;99.90;;;;;;6180596;23;20519;-86
2023/12/26 15:19:59;;;;;;;2.27;1.83;;;8.20;99.90;;;;;;6182259;23;20238;-86
2023/12/26 15:22:32;;;;;;;2.47;1.50;;;8.20;99.90;;;;;;6183586;23;20174;-86
2023/12/26 15:25:04;;;;;;;4.03;2.27;;;8.20;99.90;;;;;;6190468;23;20244;-84
2023/12/26 15:27:39;;;;;;;2.80;1.80;;;8.20;99.90;;;;;;6184273;23;20178;-84
2023/12/26 15:30:10;;;;;;;2.43;2.10;;;8.20;99.90;;;;;;6190710;23;20176;-87
2023/12/26 15:32:49;;;;;;;2.93;1.93;;;8.10;99.90;;;;;;6186183;23;20198;-87
2023/12/26 15:35:19;;;;;;;3.60;2.30;;;8.00;99.90;;;;;;6192141;23;20201;-86
2023/12/26 15:37:49;;;;;;;2.33;2.00;;;8.00;99.90;;;;;;6193589;23;20167;-85
2023/12/26 15:40:17;;;;;;;2.30;2.00;;;8.00;99.90;;;;;;6189984;23;20187;-84
2023/12/26 15:42:49;;;;;;;2.43;2.23;;;8.00;99.90;;;;;;6192932;23;20167;-85
2023/12/26 15:45:21;;;;;;;5.03;2.47;;;8.10;99.90;;;;;;6157841;23;20203;-84
2023/12/26 15:47:54;;;;;;;2.70;2.07;;;8.30;99.90;;;;;;6195274;23;20185;-83
2023/12/26 15:50:25;;;;;;;3.53;2.53;;;8.20;99.90;;;;;;6195638;23;20167;-84
2023/12/26 15:52:56;;;;;;;3.13;2.67;;;8.20;99.90;;;;;;6158654;23;20210;-86
2023/12/26 15:55:26;;;;;;;5.47;2.80;;;8.20;99.90;;;;;;6189204;23;20167;-84
2023/12/26 15:57:57;;;;;;;2.93;2.37;;;8.20;99.90;;;;;;6196197;23;20174;-84
2023/12/26 16:00:27;;;;;;;3.10;2.80;;;8.00;99.90;;;;;;6205194;23;20163;-85
2023/12/26 16:03:07;;;;;;;3.90;2.97;;;8.00;99.90;;;;;;6203940;23;20193;-84
2023/12/26 16:05:39;;;;;;;5.90;3.13;;;7.90;99.90;;;;;;6196099;23;20483;-84
2023/12/26 16:08:12;;;;;;;4.90;3.33;;;8.00;99.90;;;;;;6188076;23;20167;-82
2023/12/26 16:10:43;;;;;;;3.47;3.00;;;7.80;99.90;;;;;;6187888;23;20607;-82
2023/12/26 16:13:14;;;;;;;5.20;3.13;;;7.80;99.90;;;;;;6189702;23;20163;-85
2023/12/26 16:15:44;;;;;;;4.10;2.73;;;7.90;99.90;;;;;;6151373;23;20289;-86
2023/12/26 16:18:16;;;;;;;4.00;3.00;;;7.90;99.90;;;;;;6191876;23;20159;-85
2023/12/26 16:20:48;;;;;;;3.43;3.10;;;7.80;99.90;;;;;;6185664;23;20178;-84
2023/12/26 16:23:18;;;;;;;4.07;2.97;;;7.70;99.90;;;;;;6188022;23;20637;-83
2023/12/26 16:25:48;;;;;;;3.87;2.50;;;7.70;99.90;;;;;;6187828;23;20198;-85
2023/12/26 16:28:18;;;;;;;3.53;2.93;;;7.80;99.90;;;;;;6189763;23;20545;-87
2023/12/26 16:30:47;;;;;;;3.77;2.60;;;7.70;99.90;;;;;;6190765;23;20226;-82
2023/12/26 16:33:30;;;;;;;3.03;2.70;;;7.70;99.90;;;;;;6187352;23;20227;-86
2023/12/26 16:36:03;;;;;;;2.93;2.30;;;7.70;99.90;;;;;;6188907;23;20202;-83
2023/12/26 16:38:37;;;;;;;3.40;2.57;;;7.70;99.90;;;;;;6187109;23;20351;-88